Gossett, Illinois
Current Conditions -  °F | °C
As of 12:35 PM on Thursday 27 Nov 2014 (Local Time) from KCUL Reporting Station
Overcast Overcast  
Wind Chill: -6°   Ceiling: 2000
Heat Index:   Visibility: 7mi
Dew Point: -2°   Wind: 16mph
Humidity: 86%   Direction: 290°WNW
Pressure: 30.45"   Gusts: 21mph
Location:  37.9739°N, 88.3193°W
Report Text: KCUL 271835Z AUTO 29014G18KT 7SM OVC020 00/M02 A3045 RMK AO2 T00001021
Loading
Personal Weather Stations






























Interactive Weather Map New forecast layout! Learn more

10-Day Weather Forecast

Advertisements
Track Severe Weather on mobile